Time;durP1;ratioP1;P1;durP2;ratioP2;P2;SDS_P1;SDS_P2;PMS_P1;PMS_P2;Temp;Humidity;BMP_temperature;BMP_pressure;BME280_temperature;BME280_humidity;BME280_pressure;Samples;Min_cycle;Max_cycle;Signal;HPM_P1;HPM_P2
2022/11/03 00:00:02;;;;;;;40.57;22.80;;;;;;;12.81;76.66;100862.89;124651;1099;104224;-75
2022/11/03 00:03:16;;;;;;;42.73;23.27;;;;;;;12.83;76.65;100864.73;124696;1099;110768;-75
2022/11/03 00:06:05;;;;;;;45.07;22.67;;;;;;;12.84;76.82;100862.98;124817;1099;104238;-76
2022/11/03 00:08:38;;;;;;;43.53;22.53;;;;;;;12.85;77.14;100857.77;124770;1099;102386;-75
2022/11/03 00:11:13;;;;;;;41.18;22.07;;;;;;;12.88;77.02;100856.98;124770;1099;104171;-75
2022/11/03 00:13:45;;;;;;;39.10;21.30;;;;;;;12.88;76.98;100857.87;124772;1099;102210;-76
2022/11/03 00:16:16;;;;;;;43.63;22.37;;;;;;;12.90;76.62;100865.81;124760;1099;104166;-76
2022/11/03 00:18:47;;;;;;;41.27;22.27;;;;;;;12.91;76.61;100863.23;124883;1099;102831;-75
2022/11/03 00:21:18;;;;;;;40.20;22.43;;;;;;;12.91;76.98;100860.60;124701;1099;104727;-76
2022/11/03 00:23:50;;;;;;;40.27;21.17;;;;;;;12.94;76.92;100865.08;124608;1099;104265;-76
2022/11/03 00:26:23;;;;;;;39.87;21.40;;;;;;;12.93;77.37;100858.93;124497;1099;104158;-75
2022/11/03 00:28:56;;;;;;;40.97;21.50;;;;;;;12.93;77.70;100861.56;124716;1099;104217;-75
2022/11/03 00:31:29;;;;;;;40.75;21.95;;;;;;;12.94;77.44;100865.08;124829;1098;104249;-75
2022/11/03 00:34:01;;;;;;;38.37;20.70;;;;;;;12.94;77.29;100863.33;124799;1099;103414;-75
2022/11/03 00:36:35;;;;;;;38.20;20.50;;;;;;;12.96;77.23;100860.75;124804;1099;104204;-75
2022/11/03 00:39:07;;;;;;;38.85;20.68;;;;;;;12.95;77.26;100859.86;124753;1099;104759;-75
2022/11/03 00:41:39;;;;;;;40.03;21.33;;;;;;;12.97;77.73;100866.93;124839;1099;104214;-76
2022/11/03 00:44:12;;;;;;;39.95;19.80;;;;;;;12.98;77.64;100866.06;124756;1099;104245;-75
2022/11/03 00:46:43;;;;;;;42.67;22.00;;;;;;;12.97;77.76;100865.18;124769;1099;104212;-76
2022/11/03 00:49:14;;;;;;;39.43;20.20;;;;;;;12.98;77.98;100861.71;124614;1099;104176;-75
2022/11/03 00:51:45;;;;;;;39.40;20.67;;;;;;;13.01;77.60;100863.53;124669;1099;104194;-75
2022/11/03 00:54:16;;;;;;;41.30;21.23;;;;;;;13.00;76.98;100867.03;124738;1099;110648;-75
2022/11/03 00:56:47;;;;;;;39.90;21.00;;;;;;;13.01;77.33;100869.71;124635;1099;104232;-76
2022/11/03 00:59:18;;;;;;;38.30;20.57;;;;;;;13.03;77.61;100857.47;124547;1099;104290;-75
2022/11/03 01:01:50;;;;;;;39.97;19.53;;;;;;;13.04;77.90;100858.36;124597;1099;104294;-75
2022/11/03 01:07:10;;;;;;;38.13;21.10;;;;;;;12.99;77.46;100855.58;124585;1099;104179;-75
2022/11/03 01:09:43;;;;;;;37.77;20.40;;;;;;;13.06;77.79;100867.22;124672;1099;102883;-75
2022/11/03 01:12:16;;;;;;;37.53;20.63;;;;;;;13.06;77.81;100867.22;124730;1099;102864;-75
2022/11/03 01:14:49;;;;;;;40.75;20.85;;;;;;;13.05;77.66;100862.79;124315;1099;107041;-75
2022/11/03 01:17:23;;;;;;;38.97;20.70;;;;;;;13.05;77.57;100868.94;124407;1099;104278;-75
2022/11/03 01:19:53;;;;;;;;;;;;;;;13.04;77.50;100868.89;124716;1099;104169;-75
2022/11/03 01:22:25;;;;;;;39.67;20.07;;;;;;;13.03;77.91;100868.01;124602;1099;104187;-75
2022/11/03 01:24:56;;;;;;;40.33;20.23;;;;;;;13.04;77.59;100868.89;124615;1098;104233;-75
2022/11/03 01:27:27;;;;;;;38.23;20.00;;;;;;;13.04;77.67;100869.81;124630;1099;104639;-75
2022/11/03 01:29:58;;;;;;;36.00;20.50;;;;;;;13.05;77.49;100860.16;124759;1099;104723;-75
2022/11/03 01:32:29;;;;;;;37.97;20.77;;;;;;;13.06;77.64;100865.47;124697;1099;102902;-75
2022/11/03 01:35:01;;;;;;;40.13;21.10;;;;;;;13.06;77.31;100860.20;124731;1099;104348;-76
2022/11/03 01:37:33;;;;;;;35.03;19.07;;;;;;;13.06;77.49;100861.95;124767;1099;104233;-75
2022/11/03 01:40:04;;;;;;;35.00;19.67;;;;;;;13.06;78.44;100867.22;124773;1099;104169;-75
2022/11/03 01:42:35;;;;;;;37.40;19.80;;;;;;;13.05;77.71;100868.06;124859;1099;104245;-75
2022/11/03 01:45:08;;;;;;;36.77;18.97;;;;;;;13.03;78.28;100867.13;124710;1099;104275;-75
2022/11/03 01:47:42;;;;;;;37.20;19.93;;;;;;;13.02;78.45;100868.84;124519;1099;104271;-76
2022/11/03 01:50:18;;;;;;;37.10;19.37;;;;;;;13.02;78.46;100871.48;124518;1099;102889;-75
2022/11/03 01:52:53;;;;;;;34.13;17.97;;;;;;;13.02;78.30;100882.02;124685;1099;104232;-76
2022/11/03 01:55:28;;;;;;;35.03;18.83;;;;;;;13.02;77.78;100881.13;124854;1098;102851;-76
2022/11/03 01:58:04;;;;;;;36.93;18.57;;;;;;;13.02;78.11;100887.28;124817;1099;102953;-76
2022/11/03 02:00:35;;;;;;;34.40;17.70;;;;;;;13.03;78.28;100882.93;124708;1099;102870;-75
2022/11/03 02:03:07;;;;;;;32.53;17.20;;;;;;;13.01;78.09;100887.23;124684;1099;104252;-75
2022/11/03 02:05:39;;;;;;;36.53;17.83;;;;;;;12.99;78.73;100883.67;124691;1099;107508;-76
2022/11/03 02:08:16;;;;;;;33.25;16.70;;;;;;;12.98;78.69;100889.77;124796;1099;104271;-76
2022/11/03 02:10:49;;;;;;;31.63;17.27;;;;;;;12.97;79.24;100888.89;124764;1099;104211;-75
2022/11/03 02:13:23;;;;;;;31.85;17.65;;;;;;;12.95;79.46;100890.59;124816;1099;104666;-75
2022/11/03 02:15:55;;;;;;;;;;;;;;;12.93;78.94;100901.08;124765;1099;119110;-75
2022/11/03 02:18:29;;;;;;;33.25;16.40;;;;;;;12.92;79.18;100895.75;124735;1099;102804;-76
2022/11/03 02:21:09;;;;;;;30.30;16.77;;;;;;;12.92;78.83;100890.48;124723;1099;102212;-75
2022/11/03 02:23:47;;;;;;;29.10;16.33;;;;;;;12.94;79.27;100894.94;124687;1099;104277;-76
2022/11/03 02:26:18;;;;;;;31.23;16.47;;;;;;;12.92;78.72;100886.10;124504;1099;104226;-75
2022/11/03 02:28:50;;;;;;;30.00;15.73;;;;;;;12.95;78.86;100890.59;124666;1099;103777;-76
2022/11/03 02:31:33;;;;;;;32.30;16.20;;;;;;;12.94;79.28;100897.58;124666;1098;104220;-76
2022/11/03 02:34:08;;;;;;;28.23;15.53;;;;;;;12.96;79.47;100900.26;124836;1099;103668;-76
2022/11/03 02:36:46;;;;;;;28.20;14.47;;;;;;;12.95;79.65;100907.28;124649;1099;110373;-74
2022/11/03 02:39:21;;;;;;;26.20;14.50;;;;;;;12.94;79.38;100909.86;124726;1099;104175;-76
2022/11/03 02:41:55;;;;;;;28.50;15.63;;;;;;;12.91;79.45;100907.13;124779;1099;103166;-76
2022/11/03 02:44:25;;;;;;;;;;;;;;;12.86;80.47;100906.97;124302;1099;104288;-75
2022/11/03 02:47:01;;;;;;;32.27;16.03;;;;;;;12.83;80.26;100911.25;124346;1099;104176;-75
2022/11/03 02:49:32;;;;;;;28.23;15.47;;;;;;;12.80;80.28;100917.30;124746;1099;102829;-75
2022/11/03 02:52:04;;;;;;;26.13;14.13;;;;;;;12.77;80.53;100914.56;124795;1099;104166;-75
2022/11/03 02:54:40;;;;;;;29.93;15.33;;;;;;;12.76;79.96;100910.14;124726;1099;102916;-75
2022/11/03 02:57:18;;;;;;;26.63;14.47;;;;;;;12.76;80.37;100911.05;124658;1099;108250;-76
2022/11/03 03:00:04;;;;;;;33.83;15.87;;;;;;;12.76;79.97;100910.14;124728;1099;104221;-76
2022/11/03 03:02:39;;;;;;;28.00;14.93;;;;;;;12.77;80.06;100912.81;124421;1099;104249;-76
2022/11/03 03:05:14;;;;;;;29.07;15.43;;;;;;;12.80;80.60;100917.30;124751;1099;104227;-76
2022/11/03 03:07:51;;;;;;;29.90;15.03;;;;;;;12.80;80.09;100919.05;124758;1098;117921;-76
2022/11/03 03:10:25;;;;;;;31.07;15.37;;;;;;;12.81;80.70;100923.45;124593;1099;102979;-75
2022/11/03 03:12:58;;;;;;;27.67;14.63;;;;;;;12.80;80.99;100927.84;124758;1099;104262;-75
2022/11/03 03:15:40;;;;;;;29.57;15.40;;;;;;;12.80;80.61;100925.20;124602;1099;103216;-76
2022/11/03 03:18:22;;;;;;;28.90;15.83;;;;;;;12.80;80.81;100924.32;124219;1099;104169;-76
2022/11/03 03:21:03;;;;;;;26.40;14.47;;;;;;;12.79;80.18;100920.77;124257;1099;104616;-75
2022/11/03 03:23:46;;;;;;;28.07;15.00;;;;;;;12.79;80.41;100920.77;124659;1099;104326;-76
2022/11/03 03:26:24;;;;;;;29.03;15.17;;;;;;;12.77;80.81;100911.94;124614;1099;104176;-75
2022/11/03 03:28:59;;;;;;;29.90;16.17;;;;;;;12.75;81.12;100925.05;124776;1099;104169;-76
2022/11/03 03:31:36;;;;;;;29.20;14.90;;;;;;;12.72;81.49;100918.80;124783;1099;104242;-76
2022/11/03 03:34:10;;;;;;;30.67;16.00;;;;;;;12.68;81.25;100922.16;124719;1099;104204;-75
2022/11/03 03:36:46;;;;;;;31.67;16.80;;;;;;;12.64;81.15;100915.91;124811;1099;104232;-76
2022/11/03 03:39:22;;;;;;;30.77;16.33;;;;;;;12.62;81.47;100924.58;124812;1097;104163;-75
2022/11/03 03:42:16;;;;;;;32.17;15.97;;;;;;;12.59;80.95;100922.76;124702;1099;104268;-75
2022/11/03 03:44:49;;;;;;;32.50;18.07;;;;;;;12.54;81.50;100919.05;124459;1099;102499;-75
2022/11/03 03:47:28;;;;;;;31.47;17.27;;;;;;;12.49;81.54;100918.89;124890;1099;102874;-76
2022/11/03 03:49:59;;;;;;;30.27;16.97;;;;;;;12.47;81.23;100925.85;124952;1099;104683;-76
2022/11/03 03:52:36;;;;;;;32.30;17.17;;;;;;;12.44;81.10;100923.11;124861;1099;104222;-75
2022/11/03 03:55:15;;;;;;;32.13;17.63;;;;;;;12.38;81.11;100915.88;124910;1098;104190;-75
2022/11/03 03:57:46;;;;;;;32.77;18.17;;;;;;;12.35;81.52;100922.79;124726;1099;104182;-76
2022/11/03 04:00:18;;;;;;;35.00;18.93;;;;;;;12.29;81.74;100927.83;124829;1099;104194;-76
2022/11/03 04:02:49;;;;;;;34.93;18.33;;;;;;;12.23;81.77;100926.78;124816;1099;104541;-75
2022/11/03 04:05:20;;;;;;;33.27;18.57;;;;;;;12.18;81.78;100930.96;124875;1099;104181;-75
2022/11/03 04:07:51;;;;;;;34.13;19.13;;;;;;;12.12;81.60;100930.73;124849;1099;102894;-76
2022/11/03 04:10:24;;;;;;;37.97;19.50;;;;;;;12.09;81.67;100935.92;124969;1099;102826;-76
2022/11/03 04:24:11;;;;;;;36.67;19.57;;;;;;;11.80;82.23;100943.58;125121;1098;104187;-76
2022/11/03 04:26:42;;;;;;;36.67;20.47;;;;;;;11.75;82.26;100945.14;125082;1098;103513;-75
2022/11/03 04:29:13;;;;;;;34.07;19.43;;;;;;;11.71;82.47;100942.34;124797;1098;102243;-75
2022/11/03 04:31:44;;;;;;;34.77;19.93;;;;;;;11.66;81.94;100939.53;125057;1099;103832;-75
2022/11/03 04:34:16;;;;;;;37.43;20.63;;;;;;;11.62;82.76;100943.76;125277;1099;103034;-75
2022/11/03 04:36:47;;;;;;;37.90;19.77;;;;;;;11.58;82.29;100946.24;125043;1099;102367;-75
2022/11/03 04:39:20;;;;;;;40.10;20.57;;;;;;;11.53;82.60;100943.44;125001;1099;104238;-76
2022/11/03 04:41:51;;;;;;;35.83;19.57;;;;;;;11.50;82.18;100951.20;125014;1099;102866;-75
2022/11/03 04:44:22;;;;;;;40.23;21.97;;;;;;;11.47;82.32;100949.33;124977;1099;103312;-76
2022/11/03 04:46:55;;;;;;;35.97;20.97;;;;;;;11.46;82.23;100950.16;124866;1099;104229;-75
2022/11/03 04:49:26;;;;;;;37.93;21.47;;;;;;;11.45;82.00;100961.53;124856;1099;102377;-76
2022/11/03 04:51:58;;;;;;;37.73;20.13;;;;;;;11.45;82.25;100966.78;125246;1099;102879;-76
2022/11/03 04:54:29;;;;;;;36.40;20.63;;;;;;;11.44;82.06;100978.12;125210;1098;104235;-76
2022/11/03 04:57:04;;;;;;;38.07;19.87;;;;;;;11.45;81.79;100974.67;125429;1099;102377;-76
2022/11/03 04:59:36;;;;;;;34.63;18.70;;;;;;;11.46;81.78;100983.44;124923;1099;103315;-76
2022/11/03 05:02:13;;;;;;;36.15;19.95;;;;;;;11.46;81.83;100992.20;124950;1099;104310;-76
2022/11/03 05:04:45;;;;;;;38.33;20.03;;;;;;;11.45;81.80;100985.18;125337;1099;104190;-75
2022/11/03 05:07:29;;;;;;;37.37;20.47;;;;;;;11.46;81.76;100986.95;125115;1099;103506;-75
2022/11/03 05:09:59;;;;;;;;;;;;;;;11.44;81.84;100987.75;125430;1099;102495;-76
2022/11/03 05:12:31;;;;;;;34.63;19.43;;;;;;;11.42;81.69;100998.20;125365;1099;104238;-76
2022/11/03 05:15:09;;;;;;;37.37;20.37;;;;;;;11.38;82.01;101004.15;125270;1099;104201;-75
2022/11/03 05:17:40;;;;;;;38.83;20.97;;;;;;;11.35;82.43;100997.89;125215;1098;104268;-76
2022/11/03 05:20:29;;;;;;;38.10;20.87;;;;;;;11.31;81.82;101000.39;125111;1099;104169;-75
2022/11/03 05:23:00;;;;;;;41.43;22.03;;;;;;;11.30;82.00;101000.33;125133;1099;105791;-75
2022/11/03 05:25:39;;;;;;;42.47;22.13;;;;;;;11.30;81.93;100997.70;125219;1099;104714;-76
2022/11/03 05:28:24;;;;;;;44.27;22.93;;;;;;;11.31;81.60;100999.47;125389;1099;104245;-75
2022/11/03 05:30:56;;;;;;;39.30;20.87;;;;;;;11.31;82.28;100996.84;125093;1099;119286;-76
2022/11/03 05:33:31;;;;;;;41.23;22.87;;;;;;;11.28;82.12;100999.34;125179;1099;104060;-76
2022/11/03 05:36:08;;;;;;;39.63;22.03;;;;;;;11.26;82.23;101001.02;125177;1099;104243;-75
2022/11/03 05:38:39;;;;;;;41.40;21.70;;;;;;;11.23;81.86;101003.52;125136;1099;102908;-76
2022/11/03 05:41:19;;;;;;;41.27;21.93;;;;;;;11.19;82.22;101013.02;124500;1099;102038;-75
2022/11/03 05:43:57;;;;;;;42.20;21.87;;;;;;;11.16;82.31;101010.27;124628;1099;103439;-76
2022/11/03 05:46:31;;;;;;;40.20;22.10;;;;;;;11.13;81.94;101016.27;124810;1099;104266;-76
2022/11/03 05:49:07;;;;;;;39.87;21.90;;;;;;;11.08;82.55;101023.08;124834;1099;104247;-75
2022/11/03 05:51:40;;;;;;;41.03;21.67;;;;;;;11.09;82.45;101024.84;124796;1099;112067;-76
2022/11/03 05:54:20;;;;;;;40.37;21.23;;;;;;;11.12;82.54;101030.23;124848;1099;102869;-75
2022/11/03 05:56:52;;;;;;;37.77;21.80;;;;;;;11.15;82.49;101014.59;125029;1099;103117;-76
2022/11/03 06:02:49;;;;;;;38.10;19.93;;;;;;;11.28;82.23;101028.23;124698;1099;102373;-75
2022/11/03 06:05:23;;;;;;;39.53;22.20;;;;;;;11.29;82.09;101027.42;124841;1099;104245;-76
2022/11/03 06:07:54;;;;;;;;;;;;;;;11.29;82.39;101027.42;124867;1099;104226;-75
2022/11/03 06:10:29;;;;;;;42.10;21.57;;;;;;;11.30;82.37;101021.34;124422;1099;104382;-76
2022/11/03 06:13:24;;;;;;;38.47;21.47;;;;;;;11.32;82.40;101030.17;124649;1099;108421;-75
2022/11/03 06:18:52;;;;;;;39.07;21.87;;;;;;;11.36;82.78;101037.36;124923;1099;102315;-76
2022/11/03 06:21:25;;;;;;;40.30;21.27;;;;;;;11.39;82.68;101039.19;125228;1099;104189;-75
2022/11/03 06:23:59;;;;;;;39.33;22.05;;;;;;;11.43;82.53;101036.75;124599;1099;104246;-76
2022/11/03 06:26:30;;;;;;;43.15;22.30;;;;;;;11.47;82.60;101036.05;124730;1099;102990;-75
2022/11/03 06:29:04;;;;;;;40.67;22.33;;;;;;;11.53;82.61;101034.50;124697;1099;102866;-76
2022/11/03 06:31:35;;;;;;;42.55;22.20;;;;;;;11.58;82.49;101040.86;124748;1099;104195;-75
2022/11/03 06:34:22;;;;;;;40.90;21.25;;;;;;;11.62;82.59;101037.50;124778;1098;103446;-76
2022/11/03 06:36:53;;;;;;;38.97;20.90;;;;;;;11.67;82.77;101044.75;125168;1099;102672;-76
2022/11/03 06:39:28;;;;;;;41.53;21.17;;;;;;;11.71;82.50;101048.38;124243;1099;102918;-76
2022/11/03 06:42:02;;;;;;;40.13;20.77;;;;;;;11.76;82.52;101049.45;124485;1099;102941;-76
2022/11/03 06:44:31;;;;;;;;;;;;;;;11.81;82.62;101063.70;124518;1099;104275;-76
2022/11/03 06:47:20;;;;;;;40.47;20.83;;;;;;;11.87;82.65;101061.31;124975;1099;104124;-76
2022/11/03 06:49:56;;;;;;;36.07;19.33;;;;;;;11.93;82.36;101058.04;124621;1100;104729;-76
2022/11/03 06:52:42;;;;;;;40.20;20.03;;;;;;;12.00;82.57;101067.09;124838;1099;102896;-77
2022/11/03 06:55:26;;;;;;;42.07;21.00;;;;;;;12.09;82.14;101062.19;125913;1099;104079;-77
2022/11/03 06:58:05;;;;;;;40.93;21.27;;;;;;;12.20;82.24;101055.59;124873;1099;102978;-76
2022/11/03 07:00:44;;;;;;;37.00;20.97;;;;;;;12.32;81.98;101054.25;125319;1099;102451;-76
2022/11/03 07:10:44;;;;;;;44.77;20.67;;;;;;;12.47;81.55;101041.66;124329;1099;104197;-76
2022/11/03 07:13:23;;;;;;;39.40;21.53;;;;;;;12.47;81.33;101023.23;124510;1099;104168;-75
2022/11/03 07:15:55;;;;;;;36.87;20.70;;;;;;;12.44;81.64;101001.19;124712;1099;104305;-76
2022/11/03 07:18:30;;;;;;;41.77;21.20;;;;;;;12.49;81.52;101002.23;124627;1099;102860;-76
2022/11/03 07:21:07;;;;;;;39.70;22.33;;;;;;;12.55;81.65;101016.50;124710;1099;102005;-75
2022/11/03 07:23:38;;;;;;;37.17;20.07;;;;;;;12.67;81.55;101017.77;124739;1099;102314;-76
2022/11/03 07:26:12;;;;;;;39.87;20.50;;;;;;;12.74;81.27;101022.42;124319;1099;104301;-76
2022/11/03 07:28:47;;;;;;;37.20;20.00;;;;;;;12.81;81.17;101028.80;124751;1099;102389;-76
2022/11/03 07:31:27;;;;;;;39.13;20.17;;;;;;;12.85;80.89;101036.86;124610;1099;102815;-75
2022/11/03 07:34:01;;;;;;;37.67;20.43;;;;;;;12.88;79.94;101036.96;124731;1098;104273;-76
2022/11/03 07:36:45;;;;;;;36.67;20.73;;;;;;;12.90;80.29;101031.75;124611;1099;102647;-75
2022/11/03 07:39:21;;;;;;;36.60;19.57;;;;;;;12.95;80.29;101033.72;126024;1099;104217;-75
2022/11/03 07:41:56;;;;;;;35.03;20.50;;;;;;;13.02;80.37;101028.66;124528;1099;104204;-76
2022/11/03 07:44:37;;;;;;;38.23;19.90;;;;;;;13.08;80.23;101039.41;124901;1099;102089;-76
2022/11/03 07:47:20;;;;;;;35.43;20.20;;;;;;;13.15;79.26;101025.61;124307;1099;104345;-76
2022/11/03 07:49:56;;;;;;;41.00;21.53;;;;;;;13.23;80.35;101031.10;124773;1099;104272;-76
2022/11/03 07:52:28;;;;;;;37.70;19.93;;;;;;;13.34;79.38;101037.68;124773;1099;104166;-74
2022/11/03 07:55:13;;;;;;;37.87;19.57;;;;;;;13.41;79.19;101026.47;125577;1098;102228;-75
2022/11/03 07:57:49;;;;;;;36.10;19.83;;;;;;;13.46;78.95;101031.89;124744;1099;104232;-76
2022/11/03 08:00:28;;;;;;;35.50;19.10;;;;;;;13.55;79.70;101029.56;124731;1099;102233;-76
2022/11/03 08:03:03;;;;;;;36.57;19.83;;;;;;;13.60;78.54;101032.34;124485;1099;102539;-75
2022/11/03 08:05:35;;;;;;;38.37;18.67;;;;;;;13.69;78.90;101037.02;124746;1098;104278;-75
2022/11/03 08:08:08;;;;;;;35.10;19.40;;;;;;;13.78;78.21;101030.28;124790;1099;102588;-75
2022/11/03 08:10:40;;;;;;;33.90;19.83;;;;;;;13.88;78.76;101027.94;124324;1103;102813;-75
2022/11/03 08:13:16;;;;;;;34.07;17.13;;;;;;;13.99;77.02;101021.23;124796;1099;104217;-74
2022/11/03 08:15:49;;;;;;;;;;;;;;;14.01;76.78;101028.35;124891;1099;103328;-74
2022/11/03 08:18:27;;;;;;;33.57;18.47;;;;;;;14.06;77.03;101032.89;124808;1098;104304;-74
2022/11/03 08:20:58;;;;;;;32.97;18.33;;;;;;;14.06;77.29;101031.13;124864;1099;102273;-75
2022/11/03 08:23:30;;;;;;;33.47;17.47;;;;;;;14.03;75.96;101029.28;124893;1099;104272;-75
2022/11/03 08:26:01;;;;;;;31.60;17.43;;;;;;;14.06;75.75;101027.61;124705;1099;104192;-74
2022/11/03 08:28:34;;;;;;;30.80;16.40;;;;;;;14.13;75.75;101026.92;124798;1099;104179;-75
2022/11/03 08:31:07;;;;;;;29.97;16.90;;;;;;;14.18;76.44;101023.58;124799;1099;103377;-75
2022/11/03 08:33:38;;;;;;;31.67;17.83;;;;;;;14.25;76.28;101026.40;124390;1099;104773;-75
2022/11/03 08:36:13;;;;;;;32.77;16.67;;;;;;;14.30;76.01;101025.66;124771;1099;102796;-75
2022/11/03 08:38:56;;;;;;;31.67;17.33;;;;;;;14.35;75.06;101034.63;124721;1099;102872;-73
2022/11/03 08:41:31;;;;;;;30.30;17.00;;;;;;;14.38;74.71;101021.52;124802;1099;104224;-74
2022/11/03 08:44:09;;;;;;;31.90;17.40;;;;;;;14.45;74.88;101034.89;124418;1099;103375;-74
2022/11/03 08:46:41;;;;;;;32.37;16.03;;;;;;;14.52;74.48;101018.35;124740;1099;104217;-74
2022/11/03 08:49:18;;;;;;;31.53;17.97;;;;;;;14.59;74.52;101025.61;124410;1099;101994;-74
2022/11/03 08:51:51;;;;;;;31.47;17.23;;;;;;;14.64;74.20;101015.20;124725;1099;104629;-74
2022/11/03 08:54:23;;;;;;;29.00;17.23;;;;;;;14.76;73.71;101023.46;124819;1099;102625;-74
2022/11/03 08:56:56;;;;;;;32.40;16.90;;;;;;;14.89;73.87;101019.39;124726;1099;104156;-74
2022/11/03 08:59:30;;;;;;;31.60;17.47;;;;;;;14.92;73.30;101004.50;124842;1099;101875;-74
2022/11/03 09:02:01;;;;;;;28.70;15.67;;;;;;;14.92;72.69;101003.62;124814;1099;104307;-74
2022/11/03 09:04:34;;;;;;;29.33;16.10;;;;;;;14.91;73.31;101010.66;124734;1099;104335;-74
2022/11/03 09:07:08;;;;;;;28.70;17.05;;;;;;;14.83;72.86;101011.30;124744;1099;104217;-74
2022/11/03 09:09:40;;;;;;;32.47;17.17;;;;;;;14.87;74.19;101011.42;124743;1099;104211;-74
2022/11/03 09:12:16;;;;;;;30.73;16.63;;;;;;;15.05;73.75;101008.38;124761;1099;104163;-74
2022/11/03 09:14:53;;;;;;;29.70;16.17;;;;;;;15.18;72.59;101004.28;124336;1099;104249;-74
2022/11/03 09:17:30;;;;;;;28.85;15.50;;;;;;;15.12;72.17;101000.60;124841;1099;104107;-73
2022/11/03 09:20:02;;;;;;;28.20;15.30;;;;;;;15.16;72.87;100998.08;124721;1099;104246;-75
2022/11/03 09:22:34;;;;;;;32.40;16.33;;;;;;;15.18;73.20;100998.11;124785;1099;102436;-75
2022/11/03 09:25:12;;;;;;;27.50;15.10;;;;;;;15.28;70.62;100989.53;124752;1099;104245;-75
2022/11/03 09:27:45;;;;;;;32.23;15.03;;;;;;;15.30;71.51;100990.45;125956;1097;104195;-74
2022/11/03 09:30:19;;;;;;;29.20;16.00;;;;;;;15.26;71.63;100989.50;124742;1099;104251;-75
2022/11/03 09:32:49;;;;;;;;;;;;;;;15.22;70.18;100992.94;124754;1099;103347;-76
2022/11/03 09:35:23;;;;;;;25.93;13.00;;;;;;;15.21;71.19;100998.19;124771;1099;104249;-75
2022/11/03 09:37:58;;;;;;;28.10;13.90;;;;;;;15.12;69.33;101003.25;124843;1099;101904;-75
2022/11/03 09:40:40;;;;;;;23.37;13.00;;;;;;;15.17;70.01;101001.60;124688;1099;104163;-74
2022/11/03 09:43:14;;;;;;;28.67;14.63;;;;;;;15.23;69.59;100989.42;124735;1099;104187;-74
2022/11/03 09:45:55;;;;;;;25.37;12.90;;;;;;;15.30;69.38;100990.45;124584;1099;104226;-74
2022/11/03 09:48:33;;;;;;;26.00;13.77;;;;;;;15.41;69.12;100985.42;124759;1099;104211;-74
2022/11/03 09:51:05;;;;;;;28.57;13.40;;;;;;;15.55;68.61;100986.66;124289;1099;104159;-74
2022/11/03 09:53:37;;;;;;;23.43;13.00;;;;;;;15.72;69.01;100980.84;126480;1098;104214;-74
2022/11/03 09:56:11;;;;;;;28.63;12.77;;;;;;;15.77;67.17;100990.72;124821;1099;103382;-74
2022/11/03 09:58:43;;;;;;;24.73;12.73;;;;;;;15.79;66.76;100985.45;125200;1099;104047;-75
2022/11/03 10:01:15;;;;;;;23.50;11.40;;;;;;;15.79;66.04;100978.41;125179;1099;104162;-75
2022/11/03 10:03:47;;;;;;;22.60;11.67;;;;;;;15.88;66.62;100974.16;125998;1098;102967;-75
2022/11/03 10:06:20;;;;;;;24.77;11.40;;;;;;;15.92;65.68;100968.09;124698;1098;104115;-76
2022/11/03 10:08:51;;;;;;;24.67;11.87;;;;;;;15.98;65.85;100973.52;124814;1099;104220;-75
2022/11/03 10:11:26;;;;;;;20.47;10.63;;;;;;;16.05;66.14;100963.94;124840;1099;104188;-75
2022/11/03 10:13:58;;;;;;;24.43;10.57;;;;;;;16.14;65.22;100970.33;125201;1099;102028;-75
2022/11/03 10:16:34;;;;;;;24.03;10.47;;;;;;;16.17;64.06;100967.75;124885;1099;104214;-75
2022/11/03 10:19:08;;;;;;;20.70;10.10;;;;;;;16.22;63.54;100956.34;124894;1099;104172;-74
2022/11/03 10:21:40;;;;;;;;;;;;;;;16.25;61.77;100961.70;124867;1099;102960;-75
2022/11/03 10:24:16;;;;;;;21.20;9.67;;;;;;;16.25;61.32;100957.31;124918;1099;104220;-74
2022/11/03 10:26:56;;;;;;;21.90;9.00;;;;;;;16.21;60.87;100947.52;125614;1098;104239;-75
2022/11/03 10:29:35;;;;;;;;;;;;;;;16.20;59.17;100958.95;124913;1099;104278;-75
2022/11/03 10:32:33;;;;;;;21.65;9.50;;;;;;;16.08;61.18;100953.41;126024;1098;104176;-74
2022/11/03 10:35:34;;;;;;;20.63;9.53;;;;;;;15.97;59.31;100961.12;126040;1098;104313;-75
2022/11/03 10:38:29;;;;;;;20.83;9.47;;;;;;;16.04;61.05;100951.58;124813;1099;102338;-74
2022/11/03 10:41:13;;;;;;;18.80;8.87;;;;;;;16.05;59.56;100951.61;124786;1099;102648;-74
2022/11/03 10:44:01;;;;;;;20.23;8.48;;;;;;;16.02;59.50;100958.58;124842;1099;102261;-73
2022/11/03 10:46:41;;;;;;;21.33;8.10;;;;;;;15.96;59.64;100935.55;124770;1099;104160;-74
2022/11/03 10:49:17;;;;;;;20.50;8.17;;;;;;;15.86;57.92;100946.78;124784;1099;101953;-73
2022/11/03 10:51:50;;;;;;;21.00;8.50;;;;;;;15.80;58.17;100945.80;124478;1099;104313;-73
2022/11/03 10:54:23;;;;;;;22.02;9.75;;;;;;;15.79;58.14;100936.06;124767;1099;103370;-75
2022/11/03 10:56:59;;;;;;;18.73;7.90;;;;;;;15.88;59.10;100942.41;124356;1103;102429;-75
2022/11/03 10:59:35;;;;;;;16.90;8.10;;;;;;;15.95;59.04;100942.56;124805;1099;102454;-74
2022/11/03 11:02:18;;;;;;;16.80;7.97;;;;;;;15.99;58.90;100928.55;124307;1099;104272;-74
2022/11/03 11:04:54;;;;;;;;;;;;;;;16.06;57.68;100926.91;124764;1099;104290;-74
2022/11/03 11:07:31;;;;;;;21.47;8.13;;;;;;;16.13;59.35;100917.36;125514;1099;104163;-75
2022/11/03 11:10:13;;;;;;;19.30;7.47;;;;;;;16.13;56.89;100931.47;124767;1099;104252;-76
2022/11/03 11:13:06;;;;;;;15.30;6.70;;;;;;;16.02;58.50;100925.08;124710;1098;104140;-76
2022/11/03 11:15:40;;;;;;;21.47;7.50;;;;;;;15.94;57.73;100919.63;124596;1099;104230;-76
2022/11/03 11:18:32;;;;;;;18.00;7.30;;;;;;;15.93;57.64;100927.54;124954;1099;104181;-76
2022/11/03 11:21:41;;;;;;;19.47;7.33;;;;;;;15.96;57.82;100922.31;124687;1099;102415;-76
2022/11/03 11:24:14;;;;;;;16.97;6.83;;;;;;;16.01;56.90;100922.41;124910;1099;103149;-76
2022/11/03 11:26:49;;;;;;;17.70;7.83;;;;;;;15.88;56.25;100916.86;125149;1099;103007;-75
2022/11/03 11:29:43;;;;;;;17.77;7.00;;;;;;;15.87;57.93;100916.83;124711;1099;108277;-75
2022/11/03 11:32:52;;;;;;;15.37;6.60;;;;;;;15.81;56.15;100913.17;124539;1099;104328;-75
2022/11/03 11:36:05;;;;;;;16.47;7.17;;;;;;;15.72;56.04;100912.06;124970;1099;104268;-76
2022/11/03 11:39:13;;;;;;;19.40;7.17;;;;;;;15.61;57.15;100907.45;124921;1099;104332;-75
2022/11/03 11:42:09;;;;;;;16.00;6.80;;;;;;;15.56;56.21;100898.50;124999;1099;102903;-75
2022/11/03 11:44:50;;;;;;;20.97;6.60;;;;;;;15.56;57.03;100894.97;124935;1099;102996;-75
2022/11/03 11:47:27;;;;;;;15.67;6.47;;;;;;;15.56;55.90;100892.33;124972;1099;104224;-76
2022/11/03 11:50:30;;;;;;;11.77;5.43;;;;;;;15.63;55.84;100897.78;124611;1099;111484;-75
2022/11/03 11:53:19;;;;;;;13.60;5.60;;;;;;;15.68;54.95;100899.64;124944;1099;104201;-74
2022/11/03 11:55:57;;;;;;;17.07;6.23;;;;;;;15.75;55.24;100881.29;125181;1099;104160;-76
2022/11/03 11:58:42;;;;;;;13.27;5.13;;;;;;;15.87;53.49;100914.18;124322;1099;104216;-74
2022/11/03 12:01:27;;;;;;;17.97;5.83;;;;;;;15.91;54.78;100884.25;124704;1099;104325;-75
2022/11/03 12:04:15;;;;;;;14.20;5.87;;;;;;;15.89;54.18;100886.86;124845;1099;104224;-76